createdAt,value
2022-12-27T04:46:41.864Z,10.00
2022-12-27T04:49:33.400Z,10.00
2022-12-27T04:52:18.903Z,10.00
2022-12-27T04:54:57.746Z,10.10
2022-12-27T04:57:25.635Z,10.00
2022-12-27T05:00:11.090Z,10.00
2022-12-27T05:02:38.374Z,10.00
2022-12-27T05:05:05.699Z,10.00
2022-12-27T05:07:51.027Z,10.10
2022-12-27T05:10:36.412Z,10.10
2022-12-27T05:13:22.002Z,10.10
2022-12-27T05:15:49.380Z,10.10
2022-12-27T05:18:16.602Z,10.10
2022-12-27T05:20:43.538Z,10.00
2022-12-27T05:23:29.064Z,10.00
2022-12-27T05:25:55.985Z,10.00
2022-12-27T05:28:22.985Z,9.90
2022-12-27T05:30:49.979Z,9.90
2022-12-27T05:33:16.901Z,9.90
2022-12-27T05:35:43.995Z,9.70
2022-12-27T05:38:11.132Z,9.70
2022-12-27T05:40:38.150Z,9.70
2022-12-27T05:43:05.098Z,9.70
2022-12-27T05:45:32.623Z,9.60
2022-12-27T05:47:59.986Z,9.60
2022-12-27T05:50:27.103Z,9.60
2022-12-27T05:52:54.074Z,9.60
2022-12-27T05:55:21.040Z,9.60
2022-12-27T05:57:47.997Z,9.70
2022-12-27T06:00:15.149Z,9.70
2022-12-27T06:02:42.538Z,9.70
2022-12-27T06:05:10.506Z,9.70
2022-12-27T06:07:38.037Z,9.80
2022-12-27T06:10:05.740Z,9.90
2022-12-27T06:12:32.711Z,9.70
2022-12-27T06:14:59.634Z,9.70
2022-12-27T06:17:26.646Z,9.70
2022-12-27T06:19:57.076Z,9.70
2022-12-27T06:22:24.691Z,9.60
2022-12-27T06:24:51.759Z,9.70
2022-12-27T06:27:18.821Z,9.60
2022-12-27T06:29:45.776Z,9.60
2022-12-27T06:32:12.821Z,9.60
2022-12-27T06:34:39.720Z,9.60
2022-12-27T06:37:06.660Z,9.60
2022-12-27T06:39:33.613Z,9.60
2022-12-27T06:42:00.560Z,9.60
2022-12-27T06:44:27.472Z,9.60
2022-12-27T06:46:54.465Z,9.60
2022-12-27T06:49:21.388Z,9.60
2022-12-27T06:51:52.604Z,9.70
2022-12-27T06:54:22.762Z,9.90
2022-12-27T06:56:49.903Z,9.60
2022-12-27T06:59:16.867Z,9.60
2022-12-27T07:01:43.884Z,9.50
2022-12-27T07:04:11.005Z,9.50
2022-12-27T07:06:38.104Z,9.50
2022-12-27T07:09:05.181Z,9.50
2022-12-27T07:11:33.156Z,9.70
2022-12-27T07:14:00.120Z,9.50
2022-12-27T07:16:28.079Z,9.50
2022-12-27T07:18:55.695Z,9.40
2022-12-27T07:21:23.815Z,9.40
2022-12-27T07:23:50.875Z,9.30
2022-12-27T07:26:19.729Z,9.30
2022-12-27T07:28:46.948Z,9.30
2022-12-27T07:31:15.644Z,9.00
2022-12-27T07:33:43.199Z,9.30
2022-12-27T07:36:14.338Z,9.30
2022-12-27T07:38:41.303Z,9.30
2022-12-27T07:41:08.343Z,9.20
2022-12-27T07:43:35.847Z,9.20
2022-12-27T07:46:06.819Z,9.20
2022-12-27T07:48:33.940Z,9.30
2022-12-27T07:51:00.857Z,9.30
2022-12-27T07:53:27.869Z,9.30
2022-12-27T07:55:55.138Z,9.30
2022-12-27T07:58:22.072Z,9.30
2022-12-27T08:00:50.316Z,9.20
2022-12-27T08:03:18.188Z,9.20
2022-12-27T08:05:49.496Z,9.20
2022-12-27T08:08:18.119Z,9.20
2022-12-27T08:10:45.163Z,9.20
2022-12-27T08:13:12.112Z,9.20
2022-12-27T08:15:41.369Z,9.20
2022-12-27T08:18:08.586Z,9.20
2022-12-27T08:20:35.914Z,9.20
2022-12-27T08:23:02.915Z,9.20
2022-12-27T08:25:29.853Z,9.20
2022-12-27T08:28:07.000Z,9.20
2022-12-27T08:30:33.950Z,9.20
2022-12-27T08:33:01.603Z,9.10
2022-12-27T08:38:15.875Z,9.10
2022-12-27T08:40:43.994Z,9.30
2022-12-27T08:43:11.620Z,9.20
2022-12-27T08:45:39.300Z,9.20
2022-12-27T08:48:06.905Z,9.20
2022-12-27T08:50:34.068Z,9.30
2022-12-27T08:53:01.831Z,9.40
2022-12-27T08:55:29.511Z,9.30
2022-12-27T08:57:59.882Z,9.30
2022-12-27T09:00:27.810Z,9.30
2022-12-27T09:02:54.922Z,9.40
2022-12-27T09:05:22.599Z,9.40
2022-12-27T09:07:49.599Z,9.50
2022-12-27T09:10:16.919Z,9.60
2022-12-27T09:12:45.544Z,9.60
2022-12-27T09:15:13.785Z,9.70
2022-12-27T09:17:41.266Z,9.70
2022-12-27T09:20:08.762Z,9.80
2022-12-27T09:22:35.757Z,9.80
2022-12-27T09:25:02.842Z,9.80
2022-12-27T09:27:29.855Z,9.90
2022-12-27T09:29:56.832Z,9.90
2022-12-27T09:32:27.323Z,9.90
2022-12-27T09:34:54.686Z,9.90
2022-12-27T09:37:21.707Z,10.00
2022-12-27T09:39:48.711Z,10.10
2022-12-27T09:42:48.492Z,10.10
2022-12-27T09:45:15.866Z,10.20
2022-12-27T09:47:45.534Z,10.20
2022-12-27T09:50:17.349Z,10.20
2022-12-27T09:52:50.417Z,10.20
2022-12-27T09:55:29.794Z,10.20
2022-12-27T09:58:02.577Z,10.20
2022-12-27T10:00:34.489Z,10.20
2022-12-27T10:03:06.208Z,10.30
2022-12-27T10:05:34.200Z,10.30
2022-12-27T10:08:19.903Z,10.60
2022-12-27T10:11:01.885Z,10.40
2022-12-27T10:13:37.645Z,10.30
2022-12-27T10:16:10.573Z,10.10
2022-12-27T10:18:45.624Z,10.30
2022-12-27T10:21:12.621Z,10.30
2022-12-27T10:23:42.141Z,10.30
2022-12-27T10:26:16.674Z,10.40
2022-12-27T10:28:47.504Z,10.20
2022-12-27T10:31:18.574Z,10.20
2022-12-27T10:33:47.063Z,10.20
2022-12-27T10:36:15.233Z,10.20
2022-12-27T10:38:42.290Z,10.20
2022-12-27T10:41:21.319Z,10.30
2022-12-27T10:43:51.286Z,10.30
2022-12-27T10:46:20.786Z,10.40
2022-12-27T10:49:20.254Z,10.60
2022-12-27T10:51:40.705Z,10.40
2022-12-27T10:54:12.840Z,10.40
2022-12-27T10:56:41.499Z,10.30
2022-12-27T10:59:12.958Z,10.30
2022-12-27T11:01:40.103Z,10.40
2022-12-27T11:04:15.970Z,10.40
2022-12-27T11:06:49.712Z,10.40
2022-12-27T11:09:26.692Z,10.40
2022-12-27T11:12:15.205Z,10.40
2022-12-27T11:14:55.874Z,10.40
2022-12-27T11:17:31.935Z,10.40
2022-12-27T11:20:02.441Z,10.40
2022-12-27T11:22:29.435Z,10.50
2022-12-27T11:24:59.338Z,10.40
2022-12-27T11:27:27.604Z,10.40
2022-12-27T11:29:56.746Z,10.40
2022-12-27T11:32:24.080Z,10.50
2022-12-27T11:34:53.456Z,10.50
2022-12-27T11:37:22.509Z,10.50
2022-12-27T11:39:51.923Z,10.80
2022-12-27T11:42:40.630Z,10.70
2022-12-27T11:45:16.534Z,10.60
2022-12-27T11:47:58.570Z,10.60
2022-12-27T11:50:28.588Z,10.70
2022-12-27T11:53:06.068Z,10.70
2022-12-27T11:55:53.489Z,10.70
2022-12-27T11:58:26.791Z,10.70
2022-12-27T12:00:53.759Z,10.80
2022-12-27T12:03:42.820Z,10.80
2022-12-27T12:06:16.460Z,10.80
2022-12-27T12:09:01.987Z,10.80
2022-12-27T12:11:45.093Z,10.80
2022-12-27T12:14:32.960Z,10.90
2022-12-27T12:17:02.786Z,10.90
2022-12-27T12:19:52.577Z,10.90
2022-12-27T12:22:38.080Z,10.90
2022-12-27T12:25:10.956Z,11.00
2022-12-27T12:27:56.821Z,10.90
2022-12-27T12:30:41.602Z,11.00
2022-12-27T12:33:20.642Z,11.00
2022-12-27T12:35:47.585Z,11.10
2022-12-27T12:38:28.167Z,11.10
2022-12-27T12:41:10.267Z,11.10
2022-12-27T12:43:46.167Z,11.10
2022-12-27T12:46:28.665Z,11.10
2022-12-27T12:49:14.509Z,11.10
2022-12-27T12:51:50.540Z,11.10
2022-12-27T12:54:26.254Z,11.10
2022-12-27T12:56:56.022Z,11.10
2022-12-27T12:59:43.259Z,11.10
2022-12-27T13:02:38.693Z,11.10
2022-12-27T13:05:22.289Z,11.10
2022-12-27T13:08:04.282Z,11.10
2022-12-27T13:10:36.984Z,11.10
2022-12-27T13:13:07.085Z,11.10
2022-12-27T13:15:34.017Z,11.20
2022-12-27T13:18:20.435Z,11.30
2022-12-27T13:20:49.618Z,11.20
2022-12-27T13:23:34.668Z,11.20
2022-12-27T13:26:06.647Z,11.30
2022-12-27T13:28:52.206Z,11.40
2022-12-27T13:31:26.744Z,11.30
2022-12-27T13:34:12.397Z,11.30
2022-12-27T13:36:45.255Z,11.30
2022-12-27T13:39:30.694Z,11.30
2022-12-27T13:42:16.312Z,11.30
2022-12-27T13:45:01.365Z,11.30
2022-12-27T13:47:35.043Z,11.30
2022-12-27T13:50:17.001Z,11.30
2022-12-27T13:52:44.081Z,11.30
2022-12-27T13:55:26.221Z,11.40
2022-12-27T13:58:22.571Z,11.40
2022-12-27T14:00:52.276Z,11.40
2022-12-27T14:03:37.932Z,11.40
2022-12-27T14:06:07.728Z,11.40
2022-12-27T14:08:52.657Z,11.40
2022-12-27T14:11:30.440Z,11.40
2022-12-27T14:13:58.137Z,11.50
2022-12-27T14:16:36.025Z,11.60
2022-12-27T14:19:21.794Z,11.40
2022-12-27T14:22:07.563Z,11.40
2022-12-27T14:24:53.029Z,11.40
2022-12-27T14:27:32.493Z,11.40
2022-12-27T14:30:05.355Z,11.40
2022-12-27T14:32:55.811Z,11.40
2022-12-27T14:35:35.396Z,11.40
2022-12-27T14:38:20.847Z,11.40
2022-12-27T14:40:56.747Z,11.40
2022-12-27T14:43:42.129Z,11.40
2022-12-27T14:46:23.406Z,11.40
2022-12-27T14:48:53.220Z,11.30
2022-12-27T14:51:59.760Z,11.40
2022-12-27T14:54:52.748Z,11.30
2022-12-27T14:57:31.735Z,11.30
2022-12-27T15:00:04.541Z,11.30
2022-12-27T15:02:47.441Z,11.30
2022-12-27T15:05:23.523Z,11.30
2022-12-27T15:08:00.529Z,11.30
2022-12-27T15:10:36.471Z,11.30
2022-12-27T15:13:06.483Z,11.30
2022-12-27T15:15:45.700Z,11.20
2022-12-27T15:18:31.312Z,11.20
2022-12-27T15:21:04.368Z,11.20
2022-12-27T15:23:34.162Z,11.20
2022-12-27T15:26:19.728Z,11.10
2022-12-27T15:29:08.883Z,11.10
2022-12-27T15:31:35.862Z,11.00
2022-12-27T15:34:11.077Z,11.00
2022-12-27T15:36:42.367Z,11.00
2022-12-27T15:39:28.244Z,11.00
2022-12-27T15:42:07.256Z,11.00
2022-12-27T15:44:37.084Z,11.00
2022-12-27T15:47:14.554Z,10.90
2022-12-27T15:49:41.500Z,10.90
2022-12-27T15:52:13.209Z,10.80
2022-12-27T15:54:44.038Z,10.80
2022-12-27T15:57:27.486Z,10.80
2022-12-27T15:59:54.437Z,10.70
2022-12-27T16:02:24.251Z,10.70
2022-12-27T16:05:00.624Z,10.70
2022-12-27T16:07:46.417Z,10.70
2022-12-27T16:10:31.641Z,10.70
2022-12-27T16:12:58.580Z,10.60
2022-12-27T16:15:34.661Z,10.60
2022-12-27T16:18:02.647Z,10.50
2022-12-27T16:20:30.068Z,10.60
2022-12-27T16:23:02.050Z,10.60
2022-12-27T16:25:33.068Z,10.50
2022-12-27T16:28:19.560Z,10.60
2022-12-27T16:30:46.612Z,10.50
2022-12-27T16:33:25.636Z,10.50
2022-12-27T16:36:21.922Z,10.50
2022-12-27T16:38:48.865Z,10.50
2022-12-27T16:41:24.920Z,10.50
2022-12-27T16:44:00.797Z,10.40
2022-12-27T16:46:27.830Z,10.30
2022-12-27T16:49:13.405Z,10.30
2022-12-27T16:51:46.194Z,10.30
2022-12-27T16:54:22.287Z,10.30
2022-12-27T16:56:49.718Z,10.20
2022-12-27T16:59:35.295Z,10.30
2022-12-27T17:02:02.461Z,10.20
2022-12-27T17:04:50.887Z,10.10
2022-12-27T17:07:41.429Z,10.10
2022-12-27T17:10:40.642Z,10.10
2022-12-27T17:13:21.122Z,10.00
2022-12-27T17:15:54.318Z,9.90
2022-12-27T17:18:28.275Z,9.80
2022-12-27T17:21:00.912Z,9.80
2022-12-27T17:23:27.885Z,9.80
2022-12-27T17:26:03.154Z,9.70
2022-12-27T17:28:34.878Z,9.70
2022-12-27T17:31:09.489Z,9.70
2022-12-27T17:33:50.512Z,9.60
2022-12-27T17:36:25.555Z,9.60
2022-12-27T17:38:52.446Z,9.50
2022-12-27T17:41:53.037Z,9.40
2022-12-27T17:44:40.151Z,9.40
2022-12-27T17:47:13.384Z,9.40
2022-12-27T17:49:42.645Z,9.50
2022-12-27T17:52:33.550Z,9.30
2022-12-27T17:55:34.514Z,9.30
2022-12-27T17:58:02.524Z,9.40
2022-12-27T18:00:32.479Z,9.30
2022-12-27T18:03:01.165Z,9.30
2022-12-27T18:05:32.155Z,9.20
2022-12-27T18:08:03.108Z,9.20
2022-12-27T18:10:30.766Z,9.10
2022-12-27T18:12:59.746Z,9.20
2022-12-27T18:15:28.111Z,9.00
2022-12-27T18:17:58.965Z,9.00
2022-12-27T18:20:25.899Z,9.00
2022-12-27T18:22:53.374Z,8.90
2022-12-27T18:25:30.510Z,8.80
2022-12-27T18:28:01.441Z,8.80
2022-12-27T18:30:29.576Z,8.70
2022-12-27T18:32:57.069Z,8.70
2022-12-27T18:35:25.532Z,8.60
2022-12-27T18:37:53.108Z,8.60
2022-12-27T18:40:21.691Z,8.70
2022-12-27T18:42:51.331Z,8.60
2022-12-27T18:45:18.340Z,8.60
2022-12-27T18:47:47.258Z,8.60
2022-12-27T18:50:19.117Z,8.60
2022-12-27T18:52:49.805Z,8.40
2022-12-27T18:55:27.544Z,8.40
2022-12-27T18:58:01.895Z,8.40
2022-12-27T19:00:29.308Z,8.40
2022-12-27T19:03:12.412Z,8.40
2022-12-27T19:05:39.721Z,8.40
2022-12-27T19:08:12.099Z,8.30
2022-12-27T19:10:46.475Z,8.30
2022-12-27T19:13:21.901Z,8.30
2022-12-27T19:15:49.854Z,8.20
2022-12-27T19:18:21.298Z,8.10
2022-12-27T19:20:54.459Z,8.10
2022-12-27T19:23:26.291Z,8.00
2022-12-27T19:26:07.703Z,8.00
2022-12-27T19:28:34.841Z,7.90
2022-12-27T19:31:19.228Z,7.80
2022-12-27T19:33:48.987Z,7.80
2022-12-27T19:36:16.132Z,7.80
2022-12-27T19:38:47.734Z,7.80
2022-12-27T19:41:15.461Z,7.80
2022-12-27T19:43:44.404Z,7.90
2022-12-27T19:46:12.431Z,7.90
2022-12-27T19:48:39.797Z,7.80
2022-12-27T19:51:07.377Z,7.70
2022-12-27T19:53:38.428Z,7.60
2022-12-27T19:56:07.643Z,7.50
2022-12-27T19:58:34.645Z,7.60
2022-12-27T20:01:01.676Z,7.50
2022-12-27T20:03:28.798Z,7.50
2022-12-27T20:06:13.692Z,7.50
2022-12-27T20:08:48.365Z,7.50
2022-12-27T20:11:20.354Z,7.40
2022-12-27T20:13:47.416Z,7.30
2022-12-27T20:16:15.729Z,7.30
2022-12-27T20:18:43.623Z,7.30
2022-12-27T20:21:14.445Z,7.30
2022-12-27T20:23:41.430Z,7.20
2022-12-27T20:26:08.615Z,7.20
2022-12-27T20:28:35.544Z,7.20
2022-12-27T20:31:09.331Z,7.20
2022-12-27T20:33:36.649Z,7.20
2022-12-27T20:36:04.138Z,7.20
2022-12-27T20:38:31.175Z,7.20
2022-12-27T20:41:05.343Z,7.20
2022-12-27T20:43:32.295Z,7.10
2022-12-27T20:46:03.563Z,7.10
2022-12-27T20:48:30.578Z,7.10
2022-12-27T20:50:57.511Z,7.10
2022-12-27T20:53:27.784Z,7.20
2022-12-27T20:55:58.933Z,7.10
2022-12-27T20:58:25.898Z,7.10
2022-12-27T21:00:52.869Z,7.00
2022-12-27T21:03:19.943Z,7.00
2022-12-27T21:05:46.931Z,7.10
2022-12-27T21:08:13.877Z,7.00
2022-12-27T21:10:40.803Z,7.00
2022-12-27T21:13:07.855Z,7.00
2022-12-27T21:15:40.396Z,7.00
2022-12-27T21:18:09.277Z,7.00
2022-12-27T21:20:36.262Z,7.00
2022-12-27T21:23:03.166Z,7.00
2022-12-27T21:25:30.098Z,7.00
2022-12-27T21:27:57.222Z,7.00
2022-12-27T21:30:24.209Z,7.00
2022-12-27T21:32:51.131Z,6.90
2022-12-27T21:35:18.055Z,6.90
2022-12-27T21:37:44.948Z,6.90
2022-12-27T21:40:12.030Z,6.90
2022-12-27T21:42:38.998Z,6.90
2022-12-27T21:45:06.183Z,6.90
2022-12-27T21:47:33.108Z,6.90
2022-12-27T21:50:00.029Z,6.80
2022-12-27T21:52:28.816Z,6.80
2022-12-27T21:54:55.736Z,6.80
2022-12-27T21:57:22.625Z,6.80
2022-12-27T21:59:49.532Z,6.90
2022-12-27T22:02:18.460Z,6.90
2022-12-27T22:04:45.535Z,6.80
2022-12-27T22:07:12.463Z,6.80
2022-12-27T22:09:39.426Z,6.80
2022-12-27T22:12:06.364Z,6.80
2022-12-27T22:14:36.814Z,6.80
2022-12-27T22:17:04.209Z,6.80
2022-12-27T22:19:31.148Z,6.80
2022-12-27T22:21:58.042Z,6.80
2022-12-27T22:24:25.269Z,6.80
2022-12-27T22:26:52.263Z,6.70
2022-12-27T22:29:19.331Z,6.70
2022-12-27T22:31:46.538Z,6.70
2022-12-27T22:34:13.719Z,6.70
2022-12-27T22:36:40.676Z,6.70
2022-12-27T22:39:07.759Z,6.70
2022-12-27T22:41:36.235Z,6.60
2022-12-27T22:44:04.651Z,6.60
2022-12-27T22:46:58.733Z,6.60
2022-12-27T22:49:18.611Z,6.50
2022-12-27T22:51:45.715Z,6.60
2022-12-27T22:54:12.603Z,6.60
2022-12-27T22:56:40.502Z,6.60
2022-12-27T22:59:11.802Z,6.70
2022-12-27T23:01:39.487Z,6.70
2022-12-27T23:04:07.780Z,6.40
2022-12-27T23:06:35.197Z,6.60
2022-12-27T23:09:02.649Z,6.50
2022-12-27T23:11:31.265Z,6.50
2022-12-27T23:14:02.603Z,6.50
2022-12-27T23:16:35.588Z,6.50
2022-12-27T23:19:02.726Z,6.50
2022-12-27T23:21:29.687Z,6.50
2022-12-27T23:23:56.632Z,6.50
2022-12-27T23:26:23.626Z,6.40
2022-12-27T23:28:51.443Z,6.40
2022-12-27T23:31:19.648Z,6.40
2022-12-27T23:33:46.648Z,6.40
2022-12-27T23:36:14.138Z,6.30
2022-12-27T23:38:41.693Z,6.40
2022-12-27T23:41:10.316Z,6.40
2022-12-27T23:43:55.736Z,6.30
2022-12-27T23:46:25.235Z,6.30
2022-12-27T23:48:52.319Z,6.30
2022-12-27T23:51:19.812Z,6.30
2022-12-27T23:53:47.066Z,6.20
2022-12-27T23:56:27.344Z,6.20
2022-12-27T23:58:55.210Z,6.30
